Time;durP1;ratioP1;P1;durP2;ratioP2;P2;SDS_P1;SDS_P2;PMS_P1;PMS_P2;Temp;Humidity;BMP_temperature;BMP_pressure;BME280_temperature;BME280_humidity;BME280_pressure;Samples;Min_cycle;Max_cycle;Signal;HPM_P1;HPM_P2
2023/12/19 00:00:00;;;;;;;34.83;23.03;;;;;;;;;;5077312;28;20175;-56
2023/12/19 00:02:26;;;;;;;41.83;24.60;;;;;;;;;;5076878;28;20182;-56
2023/12/19 00:04:52;;;;;;;37.40;24.17;;;;;;;;;;5075859;28;20271;-58
2023/12/19 00:07:19;;;;;;;39.87;25.27;;;;;;;;;;5076387;28;20279;-57
2023/12/19 00:09:45;;;;;;;33.77;24.80;;;;;;;;;;5076323;28;20531;-56
2023/12/19 00:12:11;;;;;;;38.53;24.83;;;;;;;;;;5075711;28;20168;-54
2023/12/19 00:14:37;;;;;;;39.37;25.20;;;;;;;;;;5076431;28;20245;-57
2023/12/19 00:17:03;;;;;;;41.37;26.40;;;;;;;;;;5094783;28;20441;-53
2023/12/19 00:19:29;;;;;;;33.70;23.00;;;;;;;;;;5094310;28;20297;-56
2023/12/19 00:21:56;;;;;;;43.73;25.20;;;;;;;;;;5076192;28;20569;-56
2023/12/19 00:24:22;;;;;;;41.57;25.03;;;;;;;;;;5093817;28;20251;-55
2023/12/19 00:26:48;;;;;;;35.40;23.60;;;;;;;;;;5075680;28;20212;-57
2023/12/19 00:29:15;;;;;;;38.70;24.63;;;;;;;;;;5076669;28;20179;-57
2023/12/19 00:31:42;;;;;;;38.20;24.80;;;;;;;;;;5076285;28;20202;-57
2023/12/19 00:34:09;;;;;;;35.13;23.53;;;;;;;;;;5075888;28;20182;-55
2023/12/19 00:36:35;;;;;;;36.83;23.93;;;;;;;;;;5056238;28;20233;-54
2023/12/19 00:39:04;;;;;;;39.57;25.27;;;;;;;;;;5053588;28;20174;-58
2023/12/19 00:41:30;;;;;;;41.50;24.27;;;;;;;;;;5054393;28;20169;-57
2023/12/19 00:43:56;;;;;;;34.57;23.03;;;;;;;;;;5057247;28;20545;-58
2023/12/19 00:46:22;;;;;;;34.10;23.03;;;;;;;;;;5058098;28;20227;-57
2023/12/19 00:48:48;;;;;;;35.73;22.23;;;;;;;;;;5058018;28;20238;-57
2023/12/19 00:51:14;;;;;;;34.07;21.83;;;;;;;;;;5057749;28;20458;-57
2023/12/19 00:53:41;;;;;;;36.13;22.53;;;;;;;;;;5057741;28;20173;-57
2023/12/19 00:56:09;;;;;;;35.20;22.07;;;;;;;;;;5057733;28;20211;-57
2023/12/19 00:58:38;;;;;;;30.37;20.93;;;;;;;;;;5058300;28;20150;-56
2023/12/19 01:01:07;;;;;;;30.10;21.33;;;;;;;;;;5058408;28;20853;-57
2023/12/19 01:03:33;;;;;;;32.83;21.70;;;;;;;;;;5057288;28;20173;-58
2023/12/19 01:06:03;;;;;;;30.70;20.50;;;;;;;;;;5056615;28;20177;-56
2023/12/19 01:08:30;;;;;;;30.40;20.77;;;;;;;;;;5057278;28;20204;-54
2023/12/19 01:10:56;;;;;;;33.03;20.20;;;;;;;;;;5056744;28;20238;-56
2023/12/19 01:13:23;;;;;;;29.53;20.00;;;;;;;;;;5056602;28;20570;-58
2023/12/19 01:15:51;;;;;;;30.00;18.93;;;;;;;;;;5056738;28;20283;-57
2023/12/19 01:18:17;;;;;;;30.97;20.03;;;;;;;;;;5053776;28;20173;-57
2023/12/19 01:20:44;;;;;;;25.67;19.37;;;;;;;;;;5054216;28;20174;-55
2023/12/19 01:23:11;;;;;;;27.43;19.30;;;;;;;;;;5054322;28;20561;-54
2023/12/19 01:25:39;;;;;;;26.30;17.70;;;;;;;;;;5053118;28;20181;-56
2023/12/19 01:28:06;;;;;;;28.13;18.77;;;;;;;;;;5052887;28;20178;-53
2023/12/19 01:30:32;;;;;;;27.10;18.37;;;;;;;;;;5052853;28;20256;-56
2023/12/19 01:32:59;;;;;;;27.90;18.53;;;;;;;;;;5054563;28;20165;-54
2023/12/19 01:35:26;;;;;;;27.30;18.00;;;;;;;;;;5053048;28;20252;-54
2023/12/19 01:37:53;;;;;;;27.70;18.77;;;;;;;;;;5053906;28;20184;-53
2023/12/19 01:40:20;;;;;;;27.40;18.30;;;;;;;;;;5053971;28;20511;-55
2023/12/19 01:42:47;;;;;;;24.43;16.90;;;;;;;;;;5052395;28;20177;-56
2023/12/19 01:45:14;;;;;;;27.40;18.83;;;;;;;;;;5051782;28;20268;-55
2023/12/19 01:47:44;;;;;;;25.23;17.60;;;;;;;;;;5053637;28;20261;-56
2023/12/19 01:50:14;;;;;;;25.87;17.63;;;;;;;;;;5052929;28;20185;-56
2023/12/19 01:52:42;;;;;;;24.13;17.10;;;;;;;;;;5054643;28;20244;-52
2023/12/19 01:55:09;;;;;;;23.97;17.13;;;;;;;;;;5052545;28;20216;-53
2023/12/19 01:57:36;;;;;;;22.70;17.07;;;;;;;;;;5052497;28;20216;-57
2023/12/19 02:00:03;;;;;;;25.50;17.70;;;;;;;;;;5053057;28;20185;-57
2023/12/19 02:02:29;;;;;;;22.87;16.47;;;;;;;;;;5050513;28;20172;-54
2023/12/19 02:04:57;;;;;;;22.90;16.80;;;;;;;;;;5052811;28;20165;-57
2023/12/19 02:07:23;;;;;;;20.90;15.53;;;;;;;;;;5053076;28;20534;-58
2023/12/19 02:09:49;;;;;;;25.63;16.73;;;;;;;;;;5053945;28;20622;-56
2023/12/19 02:12:15;;;;;;;25.43;15.70;;;;;;;;;;5053716;28;20690;-55
2023/12/19 02:14:43;;;;;;;20.80;15.97;;;;;;;;;;5052720;28;20169;-57
2023/12/19 02:17:11;;;;;;;23.33;15.57;;;;;;;;;;5053383;28;20177;-54
2023/12/19 02:19:47;;;;;;;22.33;13.93;;;;;;;;;;5053459;28;20200;-56
2023/12/19 02:22:13;;;;;;;20.43;14.20;;;;;;;;;;5052324;28;20216;-56
2023/12/19 02:24:39;;;;;;;19.03;14.70;;;;;;;;;;5051508;28;20217;-58
2023/12/19 02:27:06;;;;;;;18.80;15.27;;;;;;;;;;5051097;28;20181;-57
2023/12/19 02:29:32;;;;;;;17.57;13.83;;;;;;;;;;5050752;28;20169;-56
2023/12/19 02:31:58;;;;;;;18.07;13.53;;;;;;;;;;5051496;28;20528;-56
2023/12/19 02:34:25;;;;;;;19.60;14.63;;;;;;;;;;5050245;28;20170;-55
2023/12/19 02:36:51;;;;;;;16.53;13.30;;;;;;;;;;5050532;28;20244;-58
2023/12/19 02:39:17;;;;;;;19.57;14.30;;;;;;;;;;5050005;28;20492;-54
2023/12/19 02:41:43;;;;;;;18.03;14.27;;;;;;;;;;5049763;28;20169;-57
2023/12/19 02:44:09;;;;;;;17.80;13.53;;;;;;;;;;5051413;28;20177;-54
2023/12/19 02:46:35;;;;;;;19.67;14.53;;;;;;;;;;5050618;28;20189;-53
2023/12/19 02:49:01;;;;;;;18.23;13.03;;;;;;;;;;5050880;28;20216;-56
2023/12/19 02:51:27;;;;;;;17.10;12.97;;;;;;;;;;5051340;28;20185;-55
2023/12/19 02:53:54;;;;;;;20.63;12.37;;;;;;;;;;5051927;28;20195;-55
2023/12/19 02:56:20;;;;;;;19.40;13.93;;;;;;;;;;5050914;28;20209;-56
2023/12/19 02:58:46;;;;;;;17.53;13.43;;;;;;;;;;5050969;28;20530;-54
2023/12/19 03:01:12;;;;;;;21.07;14.57;;;;;;;;;;5050698;28;20170;-55
2023/12/19 03:03:42;;;;;;;24.60;14.40;;;;;;;;;;5049259;28;20685;-56
2023/12/19 03:06:08;;;;;;;22.03;15.30;;;;;;;;;;5048700;28;20185;-54
2023/12/19 03:08:37;;;;;;;18.37;14.33;;;;;;;;;;5048415;28;20541;-57
2023/12/19 03:11:03;;;;;;;22.10;14.10;;;;;;;;;;5050021;28;20184;-56
2023/12/19 03:13:29;;;;;;;22.27;15.20;;;;;;;;;;5050010;28;20181;-58
2023/12/19 03:15:56;;;;;;;19.90;15.40;;;;;;;;;;5049795;28;20498;-53
2023/12/19 03:18:25;;;;;;;20.03;14.47;;;;;;;;;;5049834;28;20180;-57
2023/12/19 03:20:52;;;;;;;23.13;16.27;;;;;;;;;;5049807;28;20181;-52
2023/12/19 03:23:18;;;;;;;21.10;15.40;;;;;;;;;;5051495;28;20227;-53
2023/12/19 03:25:44;;;;;;;21.63;14.00;;;;;;;;;;5051933;28;20543;-56
2023/12/19 03:28:10;;;;;;;20.27;14.83;;;;;;;;;;5051713;28;20177;-54
2023/12/19 03:30:37;;;;;;;17.13;14.57;;;;;;;;;;5050968;28;20195;-57
2023/12/19 03:33:03;;;;;;;19.10;13.57;;;;;;;;;;5050933;28;20243;-54
2023/12/19 03:35:29;;;;;;;19.13;13.47;;;;;;;;;;5051545;28;20393;-56
2023/12/19 03:37:55;;;;;;;17.33;13.00;;;;;;;;;;5050777;28;20270;-56
2023/12/19 03:40:22;;;;;;;17.23;13.63;;;;;;;;;;5051200;28;20243;-52
2023/12/19 03:42:48;;;;;;;17.47;13.23;;;;;;;;;;5052259;28;20282;-56
2023/12/19 03:45:14;;;;;;;20.73;13.00;;;;;;;;;;5052703;28;20173;-56
2023/12/19 03:47:40;;;;;;;16.80;12.80;;;;;;;;;;5052634;28;20174;-58
2023/12/19 03:50:06;;;;;;;15.97;12.57;;;;;;;;;;5050527;28;20357;-52
2023/12/19 03:52:33;;;;;;;15.20;11.83;;;;;;;;;;5052585;28;20173;-56
2023/12/19 03:54:59;;;;;;;14.90;11.63;;;;;;;;;;5051049;28;20239;-57
2023/12/19 03:57:25;;;;;;;12.80;11.33;;;;;;;;;;5051136;28;20176;-55
2023/12/19 03:59:51;;;;;;;14.30;10.57;;;;;;;;;;5050954;28;20169;-54
2023/12/19 04:02:17;;;;;;;13.30;11.03;;;;;;;;;;5049808;28;20169;-58
2023/12/19 04:04:43;;;;;;;14.10;11.03;;;;;;;;;;5049768;28;20201;-56
2023/12/19 04:07:09;;;;;;;13.67;11.57;;;;;;;;;;5051982;28;20561;-58
2023/12/19 04:09:35;;;;;;;14.63;11.03;;;;;;;;;;5052527;28;20479;-58
2023/12/19 04:12:02;;;;;;;14.20;10.23;;;;;;;;;;5051230;28;20173;-58
2023/12/19 04:14:28;;;;;;;14.90;11.27;;;;;;;;;;5049430;28;20178;-58
2023/12/19 04:16:55;;;;;;;13.73;11.03;;;;;;;;;;5050349;28;20315;-57
2023/12/19 04:22:25;;;;;;;13.43;10.27;;;;;;;;;;5054407;28;20330;-58
2023/12/19 04:24:51;;;;;;;15.87;10.47;;;;;;;;;;5053594;28;20183;-55
2023/12/19 04:27:17;;;;;;;13.43;9.73;;;;;;;;;;5053272;28;20282;-54
2023/12/19 04:29:45;;;;;;;12.63;9.90;;;;;;;;;;5052504;28;20541;-56
2023/12/19 04:32:13;;;;;;;13.37;10.17;;;;;;;;;;5052523;28;20165;-56
2023/12/19 04:34:39;;;;;;;12.00;9.80;;;;;;;;;;5054440;28;20254;-55
2023/12/19 04:37:05;;;;;;;12.73;9.63;;;;;;;;;;5092553;28;20539;-57
2023/12/19 04:39:31;;;;;;;12.73;9.60;;;;;;;;;;5075315;28;20172;-58
2023/12/19 04:41:59;;;;;;;12.40;9.80;;;;;;;;;;5093824;28;20190;-57
2023/12/19 04:44:25;;;;;;;11.00;9.07;;;;;;;;;;5077447;28;20515;-55
2023/12/19 04:46:51;;;;;;;10.80;8.53;;;;;;;;;;5076353;28;20372;-56
2023/12/19 04:49:17;;;;;;;14.33;9.87;;;;;;;;;;5076838;28;20247;-53
2023/12/19 04:51:43;;;;;;;11.07;9.17;;;;;;;;;;5077244;28;20180;-56
2023/12/19 04:54:09;;;;;;;12.87;10.23;;;;;;;;;;5077343;28;20473;-54
2023/12/19 04:56:36;;;;;;;12.13;10.27;;;;;;;;;;5077380;28;20568;-55
2023/12/19 04:59:02;;;;;;;11.00;9.00;;;;;;;;;;5077024;28;20195;-54
2023/12/19 05:01:28;;;;;;;12.43;9.17;;;;;;;;;;5075673;28;20164;-53
2023/12/19 05:03:54;;;;;;;11.47;9.43;;;;;;;;;;5075496;28;20176;-57
2023/12/19 05:06:20;;;;;;;11.97;9.33;;;;;;;;;;5077039;28;20176;-56
2023/12/19 05:08:46;;;;;;;11.77;9.53;;;;;;;;;;5094314;28;20176;-57
2023/12/19 05:11:12;;;;;;;11.33;9.77;;;;;;;;;;5093939;28;20182;-54
2023/12/19 05:13:38;;;;;;;11.67;9.37;;;;;;;;;;5076507;28;20172;-55
2023/12/19 05:16:14;;;;;;;11.63;9.47;;;;;;;;;;5076164;28;20223;-56
2023/12/19 05:18:41;;;;;;;11.20;9.30;;;;;;;;;;5076387;28;20248;-54
2023/12/19 05:21:07;;;;;;;10.47;8.50;;;;;;;;;;5076023;28;20180;-55
2023/12/19 05:23:35;;;;;;;11.73;9.50;;;;;;;;;;5074229;28;20478;-56
2023/12/19 05:26:01;;;;;;;10.50;8.97;;;;;;;;;;5075372;28;20412;-57
2023/12/19 05:28:27;;;;;;;11.67;9.63;;;;;;;;;;5074117;28;20262;-54
2023/12/19 05:30:56;;;;;;;10.87;8.53;;;;;;;;;;5073632;28;20262;-55
2023/12/19 05:33:23;;;;;;;10.63;9.27;;;;;;;;;;5073768;28;20168;-57
2023/12/19 05:35:49;;;;;;;12.60;8.80;;;;;;;;;;5090220;28;20232;-54
2023/12/19 05:38:15;;;;;;;13.40;9.03;;;;;;;;;;5072027;28;20239;-53
2023/12/19 05:40:42;;;;;;;9.40;8.13;;;;;;;;;;5073346;28;20237;-58
2023/12/19 05:43:08;;;;;;;8.60;7.50;;;;;;;;;;5091754;28;20360;-58
2023/12/19 05:45:35;;;;;;;8.23;7.00;;;;;;;;;;5074338;28;20213;-58
2023/12/19 05:48:01;;;;;;;8.23;6.57;;;;;;;;;;5072990;28;20168;-55
2023/12/19 05:50:27;;;;;;;8.63;7.20;;;;;;;;;;5073449;28;20424;-57
2023/12/19 05:52:53;;;;;;;9.27;6.90;;;;;;;;;;5071492;28;20386;-57
2023/12/19 05:55:22;;;;;;;8.63;6.53;;;;;;;;;;5071564;28;20576;-57
2023/12/19 05:57:48;;;;;;;9.50;6.73;;;;;;;;;;5072076;28;20215;-55
2023/12/19 06:00:15;;;;;;;7.27;5.97;;;;;;;;;;5073512;28;20200;-57
2023/12/19 06:02:41;;;;;;;7.47;6.37;;;;;;;;;;5091724;28;20552;-55
2023/12/19 06:05:08;;;;;;;6.67;5.97;;;;;;;;;;5091192;28;20178;-55
2023/12/19 06:07:37;;;;;;;8.33;5.87;;;;;;;;;;5089474;28;20559;-57
2023/12/19 06:10:10;;;;;;;7.53;6.27;;;;;;;;;;5070055;28;20274;-57
2023/12/19 06:12:36;;;;;;;6.57;5.23;;;;;;;;;;5069399;28;20535;-55
2023/12/19 06:15:03;;;;;;;6.63;5.63;;;;;;;;;;5087140;28;20481;-55
2023/12/19 06:17:29;;;;;;;7.00;5.20;;;;;;;;;;5068572;28;20237;-55
2023/12/19 06:19:55;;;;;;;5.73;4.80;;;;;;;;;;5069951;28;20253;-56
2023/12/19 06:22:21;;;;;;;6.73;5.30;;;;;;;;;;5069429;28;20175;-57
2023/12/19 06:24:50;;;;;;;6.37;5.40;;;;;;;;;;5071846;28;20239;-55
2023/12/19 06:27:16;;;;;;;8.77;4.67;;;;;;;;;;5072007;28;20172;-57
2023/12/19 06:29:46;;;;;;;6.93;4.90;;;;;;;;;;5072783;28;20554;-56
2023/12/19 06:32:12;;;;;;;6.00;4.80;;;;;;;;;;5073215;28;20205;-57
2023/12/19 06:34:38;;;;;;;8.87;4.87;;;;;;;;;;5073216;28;20397;-53
2023/12/19 06:37:04;;;;;;;5.73;4.13;;;;;;;;;;5048548;28;20310;-58
2023/12/19 06:39:30;;;;;;;5.27;3.83;;;;;;;;;;5049065;28;20185;-56
2023/12/19 06:41:56;;;;;;;4.50;3.77;;;;;;;;;;5047068;28;20165;-58
2023/12/19 06:44:23;;;;;;;5.43;3.90;;;;;;;;;;5045753;28;20466;-57
2023/12/19 06:46:50;;;;;;;7.87;4.10;;;;;;;;;;5043805;28;20549;-53
2023/12/19 06:49:17;;;;;;;5.07;4.00;;;;;;;;;;5045325;28;20583;-55
2023/12/19 06:51:43;;;;;;;4.30;3.37;;;;;;;;;;5045367;28;20193;-57
2023/12/19 06:54:09;;;;;;;3.63;3.20;;;;;;;;;;5046082;28;20184;-56
2023/12/19 06:56:35;;;;;;;4.10;3.63;;;;;;;;;;5045581;28;20204;-57
2023/12/19 06:59:19;;;;;;;3.33;3.03;;;;;;;;;;5047055;28;20166;-54
2023/12/19 07:01:45;;;;;;;3.50;3.20;;;;;;;;;;5045271;28;20166;-57
2023/12/19 07:04:11;;;;;;;3.70;3.30;;;;;;;;;;5045451;28;20288;-55
2023/12/19 07:06:37;;;;;;;4.10;2.93;;;;;;;;;;5045550;28;20273;-53
2023/12/19 07:09:03;;;;;;;3.67;3.37;;;;;;;;;;5045392;28;20170;-57
2023/12/19 07:11:30;;;;;;;3.57;3.10;;;;;;;;;;5043836;28;20432;-53
2023/12/19 07:13:56;;;;;;;4.97;3.97;;;;;;;;;;5044458;28;20397;-53
2023/12/19 07:16:22;;;;;;;3.67;3.00;;;;;;;;;;5043531;28;20328;-57
2023/12/19 07:18:48;;;;;;;5.33;3.27;;;;;;;;;;5042992;28;20366;-57
2023/12/19 07:21:21;;;;;;;3.50;3.20;;;;;;;;;;5042871;28;20184;-57
2023/12/19 07:23:48;;;;;;;3.40;2.97;;;;;;;;;;5041330;28;20395;-56
2023/12/19 07:26:24;;;;;;;3.33;2.90;;;;;;;;;;5046855;28;20264;-57
2023/12/19 07:28:51;;;;;;;3.70;3.23;;;;;;;;;;5050335;28;20588;-56
2023/12/19 07:31:21;;;;;;;3.60;3.07;;;;;;;;;;5051238;28;20176;-57
2023/12/19 07:33:47;;;;;;;3.40;3.10;;;;;;;;;;5051550;28;20177;-55
2023/12/19 07:36:13;;;;;;;5.97;3.27;;;;;;;;;;5050152;28;20692;-55
2023/12/19 07:38:39;;;;;;;3.97;3.30;;;;;;;;;;5050151;28;20177;-57
2023/12/19 07:41:05;;;;;;;2.93;2.67;;;;;;;;;;5051085;28;20216;-57
2023/12/19 07:43:32;;;;;;;3.90;3.10;;;;;;;;;;5051267;28;20200;-55
2023/12/19 07:45:58;;;;;;;3.73;2.93;;;;;;;;;;5051386;28;20259;-57
2023/12/19 07:48:24;;;;;;;3.90;3.23;;;;;;;;;;5051088;28;20269;-56
2023/12/19 07:50:51;;;;;;;2.83;2.63;;;;;;;;;;5051554;28;20185;-58
2023/12/19 07:53:17;;;;;;;3.10;2.80;;;;;;;;;;5052976;28;20170;-56
2023/12/19 07:55:43;;;;;;;2.53;2.33;;;;;;;;;;5055108;28;20496;-57
2023/12/19 07:58:09;;;;;;;4.00;3.27;;;;;;;;;;5055005;28;20677;-57
2023/12/19 08:00:35;;;;;;;4.07;2.73;;;;;;;;;;5055169;28;20251;-57
2023/12/19 08:03:01;;;;;;;2.77;2.53;;;;;;;;;;5053820;28;20174;-56
2023/12/19 08:05:26;;;;;;;3.00;2.70;;;;;;;;;;5053190;28;20239;-57
2023/12/19 08:07:53;;;;;;;3.50;2.73;;;;;;;;;;5054172;28;20252;-57
2023/12/19 08:10:19;;;;;;;4.20;2.73;;;;;;;;;;5054184;28;20184;-53
2023/12/19 08:12:45;;;;;;;2.93;2.50;;;;;;;;;;5055250;28;20187;-56
2023/12/19 08:15:12;;;;;;;2.40;2.20;;;;;;;;;;5053808;28;20553;-57
2023/12/19 08:17:38;;;;;;;2.30;2.10;;;;;;;;;;5054607;28;20172;-54
2023/12/19 08:20:05;;;;;;;4.30;2.67;;;;;;;;;;5054640;28;20165;-55
2023/12/19 08:22:31;;;;;;;4.70;2.73;;;;;;;;;;5055173;28;20182;-54
2023/12/19 08:24:57;;;;;;;2.53;2.33;;;;;;;;;;5054281;28;20177;-57
2023/12/19 08:27:26;;;;;;;2.97;2.67;;;;;;;;;;5052988;28;20184;-53
2023/12/19 08:29:52;;;;;;;2.60;2.40;;;;;;;;;;5054264;28;20173;-56
2023/12/19 08:32:19;;;;;;;2.30;2.10;;;;;;;;;;5054730;28;20173;-56
2023/12/19 08:34:46;;;;;;;2.93;2.10;;;;;;;;;;5056973;28;20212;-56
2023/12/19 08:37:12;;;;;;;2.50;2.30;;;;;;;;;;5077545;28;20281;-55
2023/12/19 08:39:38;;;;;;;2.20;1.97;;;;;;;;;;5076715;28;20642;-56
2023/12/19 08:42:04;;;;;;;5.00;2.10;;;;;;;;;;5076560;28;20555;-56
2023/12/19 08:44:30;;;;;;;2.00;1.90;;;;;;;;;;5077662;28;20229;-54
2023/12/19 08:46:56;;;;;;;2.30;2.10;;;;;;;;;;5078334;28;20176;-55
2023/12/19 08:49:22;;;;;;;2.87;2.00;;;;;;;;;;5095726;28;20156;-54
2023/12/19 08:51:48;;;;;;;2.50;1.97;;;;;;;;;;5095729;28;20176;-54
2023/12/19 08:54:14;;;;;;;2.03;1.77;;;;;;;;;;5078295;28;20183;-56
2023/12/19 08:56:41;;;;;;;2.10;1.90;;;;;;;;;;5077765;28;20302;-56
2023/12/19 08:59:07;;;;;;;3.00;2.00;;;;;;;;;;5078494;28;20168;-58
2023/12/19 09:01:33;;;;;;;2.07;1.87;;;;;;;;;;5077852;28;20216;-56
2023/12/19 09:04:00;;;;;;;2.03;1.90;;;;;;;;;;5094031;28;20168;-57
2023/12/19 09:06:27;;;;;;;3.93;2.00;;;;;;;;;;5095431;28;20187;-57
2023/12/19 09:08:53;;;;;;;3.60;2.00;;;;;;;;;;5076823;28;20560;-58
2023/12/19 09:11:19;;;;;;;4.37;2.03;;;;;;;;;;5094011;28;20160;-55
2023/12/19 09:13:45;;;;;;;1.90;1.80;;;;;;;;;;5076595;28;20178;-57
2023/12/19 09:16:11;;;;;;;1.90;1.80;;;;;;;;;;5093826;28;20195;-56
2023/12/19 09:18:37;;;;;;;2.00;1.80;;;;;;;;;;5076975;28;20165;-57
2023/12/19 09:21:03;;;;;;;2.13;1.93;;;;;;;;;;5076522;28;20171;-57
2023/12/19 09:23:29;;;;;;;2.87;2.00;;;;;;;;;;5076803;28;20203;-57
2023/12/19 09:25:55;;;;;;;3.50;2.13;;;;;;;;;;5093031;28;20272;-55
2023/12/19 09:28:23;;;;;;;3.20;1.70;;;;;;;;;;5077703;28;20544;-57
2023/12/19 09:30:49;;;;;;;2.47;2.17;;;;;;;;;;5077780;28;20175;-58
2023/12/19 09:33:16;;;;;;;2.00;1.80;;;;;;;;;;5077746;28;20636;-56
2023/12/19 09:35:42;;;;;;;3.53;2.27;;;;;;;;;;5078097;28;20235;-57
2023/12/19 09:38:08;;;;;;;3.33;2.00;;;;;;;;;;5078340;28;20187;-56
2023/12/19 09:40:35;;;;;;;4.47;1.90;;;;;;;;;;5078820;28;20176;-55
2023/12/19 09:43:01;;;;;;;1.60;1.50;;;;;;;;;;5078961;28;20187;-56
2023/12/19 09:45:35;;;;;;;3.13;1.57;;;;;;;;;;5078640;28;20176;-56
2023/12/19 09:48:02;;;;;;;1.60;1.50;;;;;;;;;;5078348;28;20483;-56
2023/12/19 09:50:29;;;;;;;1.80;1.70;;;;;;;;;;5094985;28;20507;-56
2023/12/19 09:52:59;;;;;;;1.83;1.47;;;;;;;;;;5077749;28;20540;-56
2023/12/19 09:55:29;;;;;;;1.60;1.50;;;;;;;;;;5061144;28;20295;-57
2023/12/19 09:57:56;;;;;;;2.03;1.83;;;;;;;;;;5077951;28;20168;-57
2023/12/19 10:00:22;;;;;;;1.67;1.57;;;;;;;;;;5076304;28;20172;-58
2023/12/19 10:02:48;;;;;;;2.13;1.40;;;;;;;;;;5076318;28;20243;-57
2023/12/19 10:05:14;;;;;;;1.83;1.70;;;;;;;;;;5074964;28;20470;-57
2023/12/19 10:07:40;;;;;;;2.27;1.87;;;;;;;;;;5075148;28;20176;-58
2023/12/19 10:10:11;;;;;;;2.27;1.77;;;;;;;;;;5075113;28;20179;-58
2023/12/19 10:12:47;;;;;;;2.07;1.87;;;;;;;;;;5074874;28;20164;-57
2023/12/19 10:15:15;;;;;;;2.30;1.67;;;;;;;;;;5074971;28;20168;-57
2023/12/19 10:17:41;;;;;;;3.17;2.10;;;;;;;;;;5075709;28;20277;-55
2023/12/19 10:20:11;;;;;;;2.30;2.10;;;;;;;;;;5075249;28;20172;-58
2023/12/19 10:22:37;;;;;;;1.60;1.50;;;;;;;;;;5092428;28;20168;-57
2023/12/19 10:25:03;;;;;;;2.57;2.20;;;;;;;;;;5091415;28;20820;-55
2023/12/19 10:27:29;;;;;;;3.73;1.93;;;;;;;;;;5076052;28;20172;-55
2023/12/19 10:30:14;;;;;;;2.17;2.07;;;;;;;;;;5093196;28;20160;-58
2023/12/19 10:32:42;;;;;;;1.73;1.40;;;;;;;;;;5075703;28;20175;-55
2023/12/19 10:35:08;;;;;;;2.17;1.93;;;;;;;;;;5075016;28;20255;-58
2023/12/19 10:37:35;;;;;;;2.40;2.20;;;;;;;;;;5075860;28;20296;-55
2023/12/19 10:40:11;;;;;;;2.23;1.70;;;;;;;;;;5075297;28;20198;-57
2023/12/19 10:42:37;;;;;;;2.30;2.10;;;;;;;;;;5092427;28;20179;-58
2023/12/19 10:45:05;;;;;;;2.50;2.30;;;;;;;;;;5074500;28;20179;-54
2023/12/19 10:47:31;;;;;;;3.63;2.60;;;;;;;;;;5075155;28;20168;-59
2023/12/19 10:49:57;;;;;;;2.70;2.50;;;;;;;;;;5092706;28;20210;-56
2023/12/19 10:52:26;;;;;;;2.77;2.53;;;;;;;;;;5093087;28;20176;-58
2023/12/19 10:54:56;;;;;;;2.97;2.70;;;;;;;;;;5075685;28;20283;-59
2023/12/19 10:57:26;;;;;;;3.17;2.73;;;;;;;;;;5076212;28;20252;-59
2023/12/19 11:00:00;;;;;;;2.60;2.40;;;;;;;;;;5076597;28;20759;-59
2023/12/19 11:02:37;;;;;;;3.83;2.80;;;;;;;;;;5075447;28;20548;-58
2023/12/19 11:05:10;;;;;;;2.93;2.73;;;;;;;;;;5091887;28;20148;-59
2023/12/19 11:07:36;;;;;;;2.70;2.50;;;;;;;;;;5091944;28;20487;-55
2023/12/19 11:10:05;;;;;;;3.63;2.73;;;;;;;;;;5073602;28;20777;-57
2023/12/19 11:12:32;;;;;;;4.57;3.47;;;;;;;;;;5073137;28;20259;-59
2023/12/19 11:14:58;;;;;;;3.93;3.13;;;;;;;;;;5073552;28;20176;-59
2023/12/19 11:17:32;;;;;;;4.03;3.63;;;;;;;;;;5070576;28;20200;-59
2023/12/19 11:20:03;;;;;;;5.20;4.07;;;;;;;;;;5071339;28;20185;-56
2023/12/19 11:22:54;;;;;;;3.47;3.17;;;;;;;;;;5071382;28;20172;-58
2023/12/19 11:25:20;;;;;;;5.63;3.37;;;;;;;;;;5089170;28;20166;-58
2023/12/19 11:27:58;;;;;;;4.60;4.00;;;;;;;;;;5072107;28;20172;-59
2023/12/19 11:30:35;;;;;;;4.20;3.80;;;;;;;;;;5071182;28;20164;-59
2023/12/19 11:33:02;;;;;;;4.53;4.13;;;;;;;;;;5071211;28;20168;-59
2023/12/19 11:35:29;;;;;;;5.00;3.73;;;;;;;;;;5068743;28;20235;-58
2023/12/19 11:38:17;;;;;;;4.27;3.87;;;;;;;;;;5089949;28;20206;-57
2023/12/19 11:40:48;;;;;;;4.37;3.97;;;;;;;;;;5072258;28;20309;-59
2023/12/19 11:43:35;;;;;;;4.43;4.03;;;;;;;;;;5090656;28;20168;-57
2023/12/19 11:46:04;;;;;;;5.20;4.70;;;;;;;;;;5074690;28;20236;-58
2023/12/19 11:49:02;;;;;;;5.23;4.73;;;;;;;;;;5087021;28;20275;-59
2023/12/19 11:51:46;;;;;;;5.03;4.53;;;;;;;;;;5012705;28;20184;-58
2023/12/19 11:54:13;;;;;;;6.20;5.60;;;;;;;;;;5083575;28;20203;-55
2023/12/19 11:56:40;;;;;;;5.60;5.03;;;;;;;;;;5065498;28;20211;-58
2023/12/19 11:59:08;;;;;;;6.60;5.87;;;;;;;;;;5071833;28;20168;-55
2023/12/19 12:01:42;;;;;;;6.27;5.60;;;;;;;;;;5074290;28;20172;-56
2023/12/19 12:04:10;;;;;;;7.50;6.37;;;;;;;;;;5072572;28;20697;-56
2023/12/19 12:06:36;;;;;;;7.67;6.87;;;;;;;;;;5090354;28;20164;-59
2023/12/19 12:09:05;;;;;;;6.63;5.87;;;;;;;;;;5090019;28;20614;-59
2023/12/19 12:11:45;;;;;;;7.17;5.97;;;;;;;;;;5071505;28;20241;-58
2023/12/19 12:14:11;;;;;;;8.03;6.50;;;;;;;;;;5072848;28;20172;-59
2023/12/19 12:16:37;;;;;;;7.97;6.97;;;;;;;;;;5071619;28;20830;-58
2023/12/19 12:19:18;;;;;;;7.70;6.80;;;;;;;;;;5070934;28;20165;-57
2023/12/19 12:21:45;;;;;;;7.80;7.00;;;;;;;;;;5068847;28;20179;-58
2023/12/19 12:24:16;;;;;;;7.57;6.77;;;;;;;;;;5087328;28;20168;-54
2023/12/19 12:26:43;;;;;;;7.30;6.50;;;;;;;;;;5069076;28;20184;-57
2023/12/19 12:29:09;;;;;;;7.67;6.97;;;;;;;;;;5068102;28;20184;-57
2023/12/19 12:31:35;;;;;;;7.60;6.43;;;;;;;;;;5069454;28;20459;-59
2023/12/19 12:34:01;;;;;;;7.30;6.60;;;;;;;;;;5070068;28;20681;-58
2023/12/19 12:36:27;;;;;;;7.00;6.30;;;;;;;;;;5088960;28;20236;-51
2023/12/19 12:38:57;;;;;;;7.53;6.83;;;;;;;;;;5073855;28;20177;-58
2023/12/19 12:41:23;;;;;;;6.60;6.00;;;;;;;;;;5077299;28;20172;-59
2023/12/19 12:43:50;;;;;;;7.33;6.63;;;;;;;;;;5076465;28;20182;-57
2023/12/19 12:46:19;;;;;;;7.37;6.50;;;;;;;;;;5084122;28;20199;-55
2023/12/19 12:48:54;;;;;;;7.07;6.37;;;;;;;;;;5067205;28;20176;-57
2023/12/19 12:51:20;;;;;;;7.53;6.83;;;;;;;;;;5065808;28;20183;-58
2023/12/19 12:53:54;;;;;;;6.73;6.13;;;;;;;;;;5083724;28;20625;-58
2023/12/19 12:56:20;;;;;;;7.13;6.43;;;;;;;;;;5083245;28;20585;-57
2023/12/19 12:58:46;;;;;;;6.70;6.10;;;;;;;;;;5066169;28;20196;-54
2023/12/19 13:01:13;;;;;;;7.77;7.00;;;;;;;;;;5067816;28;20164;-57
2023/12/19 13:03:40;;;;;;;7.93;7.13;;;;;;;;;;5068066;28;20237;-56
2023/12/19 13:06:07;;;;;;;6.57;5.97;;;;;;;;;;5067344;28;20218;-57
2023/12/19 13:08:37;;;;;;;7.27;6.57;;;;;;;;;;5068065;28;20191;-58
2023/12/19 13:11:07;;;;;;;7.70;6.90;;;;;;;;;;5067975;28;20494;-59
2023/12/19 13:13:33;;;;;;;6.80;6.10;;;;;;;;;;5069704;28;20172;-59
2023/12/19 13:16:00;;;;;;;7.77;7.07;;;;;;;;;;5070147;28;20227;-59
2023/12/19 13:18:26;;;;;;;7.73;6.83;;;;;;;;;;5068473;28;20451;-55
2023/12/19 13:20:53;;;;;;;7.83;7.03;;;;;;;;;;5069708;28;20544;-57
2023/12/19 13:23:19;;;;;;;6.70;5.93;;;;;;;;;;5085941;28;20168;-56
2023/12/19 13:25:46;;;;;;;7.23;6.53;;;;;;;;;;5067947;28;20756;-52
2023/12/19 13:28:12;;;;;;;6.90;6.23;;;;;;;;;;5088827;28;20579;-54
2023/12/19 13:30:39;;;;;;;6.50;5.90;;;;;;;;;;5070780;28;20168;-56
2023/12/19 13:33:05;;;;;;;6.73;6.13;;;;;;;;;;5087721;28;20199;-54
2023/12/19 13:35:35;;;;;;;15.27;6.57;;;;;;;;;;5088737;28;20292;-58
2023/12/19 13:38:01;;;;;;;7.53;6.83;;;;;;;;;;5089965;28;20735;-59
2023/12/19 13:40:27;;;;;;;6.23;5.63;;;;;;;;;;5071921;28;20176;-58
2023/12/19 13:42:54;;;;;;;5.50;5.00;;;;;;;;;;5073469;28;20233;-59
2023/12/19 13:45:20;;;;;;;5.37;4.87;;;;;;;;;;5071381;28;20176;-58
2023/12/19 13:47:47;;;;;;;5.30;4.77;;;;;;;;;;5074080;28;20168;-55
2023/12/19 13:50:13;;;;;;;4.87;4.47;;;;;;;;;;5072177;28;20164;-58
2023/12/19 13:52:42;;;;;;;5.13;4.40;;;;;;;;;;5072729;28;20831;-55
2023/12/19 13:55:09;;;;;;;4.80;4.30;;;;;;;;;;5073893;28;20172;-56
2023/12/19 13:57:35;;;;;;;3.93;3.63;;;;;;;;;;5091618;28;20199;-57
2023/12/19 14:00:04;;;;;;;3.93;3.60;;;;;;;;;;5074297;28;20199;-58
2023/12/19 14:02:30;;;;;;;4.37;3.37;;;;;;;;;;5074166;28;20599;-57
2023/12/19 14:04:56;;;;;;;4.20;3.80;;;;;;;;;;5092268;28;20551;-58
2023/12/19 14:07:22;;;;;;;4.07;3.67;;;;;;;;;;5075561;28;20183;-59
2023/12/19 14:09:49;;;;;;;3.70;3.40;;;;;;;;;;5074326;28;20176;-59
2023/12/19 14:12:15;;;;;;;3.80;3.50;;;;;;;;;;5091667;28;20172;-57
2023/12/19 14:14:41;;;;;;;3.40;3.10;;;;;;;;;;5072894;28;20186;-57
2023/12/19 14:17:07;;;;;;;3.77;3.47;;;;;;;;;;5090181;28;20223;-55
2023/12/19 14:19:35;;;;;;;4.03;3.63;;;;;;;;;;5088815;28;20784;-58
2023/12/19 14:22:01;;;;;;;3.37;3.07;;;;;;;;;;5071144;28;20602;-55
2023/12/19 14:24:28;;;;;;;3.47;3.17;;;;;;;;;;5070022;28;20186;-54
2023/12/19 14:26:54;;;;;;;4.03;3.63;;;;;;;;;;5071618;28;20621;-53
2023/12/19 14:29:21;;;;;;;3.47;3.03;;;;;;;;;;5070961;28;20192;-56
2023/12/19 14:31:47;;;;;;;3.33;2.83;;;;;;;;;;5088663;28;20172;-54
2023/12/19 14:34:15;;;;;;;3.07;2.77;;;;;;;;;;5070718;28;20183;-58
2023/12/19 14:36:45;;;;;;;3.80;3.50;;;;;;;;;;5086973;28;20232;-58